Ce_breeze — ELSQ7 — position and weather

sailwx.info

Track history (hours):
 
Tides and Currents Weather Stations Pressure Air Temp Water Temp Dewpoint Dewpoint Depression Visibility Wind Speed Wind Dir Waves Ship Positions

Ce_breeze

Last reported at 2018-Mar-07 21:37 UTC. Time now 2018-Jul-17 22:45 UTC.
Position N 22°40' E 119°30'.
Warning: this ship's position is months out of date.

Length 240 m; draft 8 m.

Type: Tanker. MMSI: 636010400.

Date/timePositionNaut miles runAvg speedWind from/ knotsBaromVisibWave heightAir tempDewpointWater temp
2018-Mar-07 21:37N 22°40' E 119°30'44 9.1
2018-Mar-07 16:49N 23°21' E 119°49'2 7.9
2018-Mar-07 16:30N 23°23' E 119°49'4 8.4
2018-Mar-07 16:00N 23°27' E 119°50'4 8.5
2018-Mar-07 15:30N 23°31' E 119°52'4 8.6
2018-Mar-07 15:00N 23°35' E 119°53'4 8.8
2018-Mar-07 14:30N 23°39' E 119°55'109 9.8
2018-Mar-07 03:26N 25°19' E 120°43'510.6
2018-Mar-07 02:56N 25°24' E 120°46'  
2018-Feb-28 16:53N 38°52' E 121°59'16 0.4
2018-Feb-27 02:45N 38°37' E 122°07'176 8.3
2018-Feb-26 05:40N 35°58' E 120°32'411.2
2018-Feb-26 05:16N 35°60' E 120°26'5 9.8
2018-Feb-26 04:48N 36°01' E 120°21'4 7.8
2018-Feb-26 04:16N 36°02' E 120°16'2 7.5
2018-Feb-26 03:59N 36°04' E 120°14'1 2.6
2018-Feb-26 03:30N 36°04' E 120°13'0 0.0
2018-Feb-26 03:00N 36°04' E 120°13'0 0.0
2018-Feb-26 02:27N 36°04' E 120°13'0 0.0
2018-Feb-26 02:00N 36°04' E 120°13'0 0.0
2018-Feb-26 01:30N 36°04' E 120°13'0 0.0
2018-Feb-26 01:00N 36°04' E 120°13'0 0.0
2018-Feb-25 22:52N 36°04' E 120°13'0 0.0
2018-Feb-25 22:15N 36°04' E 120°13'  
Track history (hours):
 
Tides and Currents Weather Stations Pressure Air Temp Water Temp Dewpoint Dewpoint Depression Visibility Wind Speed Wind Dir Waves Ship Positions

Ce_breeze

Last reported at 2018-Mar-07 21:37 UTC. Time now 2018-Jul-17 22:45 UTC.
Position N 22°40' E 119°30'.
Warning: this ship's position is months out of date.

Length 240 m; draft 8 m.

Type: Tanker. MMSI: 636010400.

Date/timePositionNaut miles runAvg speedWind from/ knotsBaromVisibWave heightAir tempDewpointWater temp
2018-Mar-07 21:37N 22°40' E 119°30'44 9.1
2018-Mar-07 16:49N 23°21' E 119°49'2 7.9
2018-Mar-07 16:30N 23°23' E 119°49'4 8.4
2018-Mar-07 16:00N 23°27' E 119°50'4 8.5
2018-Mar-07 15:30N 23°31' E 119°52'4 8.6
2018-Mar-07 15:00N 23°35' E 119°53'4 8.8
2018-Mar-07 14:30N 23°39' E 119°55'109 9.8
2018-Mar-07 03:26N 25°19' E 120°43'510.6
2018-Mar-07 02:56N 25°24' E 120°46'  
2018-Feb-28 16:53N 38°52' E 121°59'16 0.4
2018-Feb-27 02:45N 38°37' E 122°07'176 8.3
2018-Feb-26 05:40N 35°58' E 120°32'411.2
2018-Feb-26 05:16N 35°60' E 120°26'5 9.8
2018-Feb-26 04:48N 36°01' E 120°21'4 7.8
2018-Feb-26 04:16N 36°02' E 120°16'2 7.5
2018-Feb-26 03:59N 36°04' E 120°14'1 2.6
2018-Feb-26 03:30N 36°04' E 120°13'0 0.0
2018-Feb-26 03:00N 36°04' E 120°13'0 0.0
2018-Feb-26 02:27N 36°04' E 120°13'0 0.0
2018-Feb-26 02:00N 36°04' E 120°13'0 0.0
2018-Feb-26 01:30N 36°04' E 120°13'0 0.0
2018-Feb-26 01:00N 36°04' E 120°13'0 0.0
2018-Feb-25 22:52N 36°04' E 120°13'0 0.0
2018-Feb-25 22:15N 36°04' E 120°13'  

Dump ship's entire track history